sensor_id;sensor_type;location;lat;lon;timestamp;pressure;altitude;pressure_sealevel;temperature;humidity
9189;BME280;34313;50.780;6.084;2023-12-07T00:00:15;99827.22;;;3.70;100.00
9189;BME280;34313;50.780;6.084;2023-12-07T00:02:40;99816.94;;;3.64;100.00
9189;BME280;34313;50.780;6.084;2023-12-07T00:05:06;99826.56;;;3.62;100.00
9189;BME280;34313;50.780;6.084;2023-12-07T00:07:31;99822.31;;;3.58;100.00
9189;BME280;34313;50.780;6.084;2023-12-07T00:09:56;99829.25;;;3.57;100.00
9189;BME280;34313;50.780;6.084;2023-12-07T00:12:22;99832.06;;;3.50;100.00
9189;BME280;34313;50.780;6.084;2023-12-07T00:14:47;99839.19;;;3.41;100.00
9189;BME280;34313;50.780;6.084;2023-12-07T00:17:12;99838.38;;;3.39;100.00
9189;BME280;34313;50.780;6.084;2023-12-07T00:19:38;99831.69;;;3.28;100.00
9189;BME280;34313;50.780;6.084;2023-12-07T00:22:04;99826.03;;;3.10;100.00
9189;BME280;34313;50.780;6.084;2023-12-07T00:24:30;99832.50;;;2.92;100.00
9189;BME280;34313;50.780;6.084;2023-12-07T00:26:55;99830.16;;;2.80;100.00
9189;BME280;34313;50.780;6.084;2023-12-07T00:29:21;99824.34;;;2.67;100.00
9189;BME280;34313;50.780;6.084;2023-12-07T00:31:46;99811.72;;;2.49;100.00
9189;BME280;34313;50.780;6.084;2023-12-07T00:34:11;99820.72;;;2.32;100.00
9189;BME280;34313;50.780;6.084;2023-12-07T00:36:37;99824.28;;;2.28;100.00
9189;BME280;34313;50.780;6.084;2023-12-07T00:39:04;99821.97;;;2.11;100.00
9189;BME280;34313;50.780;6.084;2023-12-07T00:41:29;99821.13;;;2.11;100.00
9189;BME280;34313;50.780;6.084;2023-12-07T00:43:54;99823.03;;;2.01;100.00
9189;BME280;34313;50.780;6.084;2023-12-07T00:46:20;99814.53;;;1.91;100.00
9189;BME280;34313;50.780;6.084;2023-12-07T00:48:45;99824.91;;;1.93;100.00
9189;BME280;34313;50.780;6.084;2023-12-07T00:51:10;99828.50;;;1.85;100.00
9189;BME280;34313;50.780;6.084;2023-12-07T00:53:36;99826.16;;;1.70;100.00
9189;BME280;34313;50.780;6.084;2023-12-07T00:56:03;99822.75;;;1.66;100.00
9189;BME280;34313;50.780;6.084;2023-12-07T00:58:28;99833.16;;;1.66;100.00
9189;BME280;34313;50.780;6.084;2023-12-07T01:00:53;99833.19;;;1.65;100.00
9189;BME280;34313;50.780;6.084;2023-12-07T01:03:19;99824.56;;;1.61;100.00
9189;BME280;34313;50.780;6.084;2023-12-07T01:05:44;99829.00;;;1.56;100.00
9189;BME280;34313;50.780;6.084;2023-12-07T01:08:10;99828.16;;;1.54;100.00
9189;BME280;34313;50.780;6.084;2023-12-07T01:10:35;99833.31;;;1.56;100.00
9189;BME280;34313;50.780;6.084;2023-12-07T01:13:00;99830.72;;;1.56;100.00
9189;BME280;34313;50.780;6.084;2023-12-07T01:15:26;99827.25;;;1.57;100.00
9189;BME280;34313;50.780;6.084;2023-12-07T01:17:52;99839.47;;;1.51;100.00
9189;BME280;34313;50.780;6.084;2023-12-07T01:20:17;99837.75;;;1.50;100.00
9189;BME280;34313;50.780;6.084;2023-12-07T01:22:42;99827.44;;;1.46;100.00
9189;BME280;34313;50.780;6.084;2023-12-07T01:25:08;99845.66;;;1.44;100.00
9189;BME280;34313;50.780;6.084;2023-12-07T01:27:34;99850.00;;;1.42;100.00
9189;BME280;34313;50.780;6.084;2023-12-07T01:29:59;99855.84;;;1.57;100.00
9189;BME280;34313;50.780;6.084;2023-12-07T01:32:25;99852.28;;;1.62;100.00
9189;BME280;34313;50.780;6.084;2023-12-07T01:34:50;99855.84;;;1.55;100.00
9189;BME280;34313;50.780;6.084;2023-12-07T01:37:15;99859.41;;;1.51;100.00
9189;BME280;34313;50.780;6.084;2023-12-07T01:39:41;99869.03;;;1.43;100.00
9189;BME280;34313;50.780;6.084;2023-12-07T01:42:08;99863.97;;;1.35;100.00
9189;BME280;34313;50.780;6.084;2023-12-07T01:44:33;99871.81;;;1.30;100.00
9189;BME280;34313;50.780;6.084;2023-12-07T01:46:59;99865.84;;;1.24;100.00
9189;BME280;34313;50.780;6.084;2023-12-07T01:49:24;99873.56;;;1.30;100.00
9189;BME280;34313;50.780;6.084;2023-12-07T01:51:50;99875.31;;;1.28;100.00
9189;BME280;34313;50.780;6.084;2023-12-07T01:54:15;99864.09;;;1.24;100.00
9189;BME280;34313;50.780;6.084;2023-12-07T01:56:41;99871.81;;;1.32;100.00
9189;BME280;34313;50.780;6.084;2023-12-07T01:59:07;99861.47;;;1.26;100.00
9189;BME280;34313;50.780;6.084;2023-12-07T02:01:33;99868.47;;;1.21;100.00
9189;BME280;34313;50.780;6.084;2023-12-07T02:03:58;99852.19;;;1.11;100.00
9189;BME280;34313;50.780;6.084;2023-12-07T02:06:24;99856.47;;;1.13;100.00
9189;BME280;34313;50.780;6.084;2023-12-07T02:08:49;99857.38;;;1.12;100.00
9189;BME280;34313;50.780;6.084;2023-12-07T02:11:14;99838.28;;;1.13;100.00
9189;BME280;34313;50.780;6.084;2023-12-07T02:13:40;99852.22;;;1.09;100.00
9189;BME280;34313;50.780;6.084;2023-12-07T02:16:13;99856.41;;;1.18;100.00
9189;BME280;34313;50.780;6.084;2023-12-07T02:18:55;99857.44;;;1.05;100.00
9189;BME280;34313;50.780;6.084;2023-12-07T02:21:30;99854.94;;;1.00;100.00
9189;BME280;34313;50.780;6.084;2023-12-07T02:24:00;99856.78;;;0.90;100.00
9189;BME280;34313;50.780;6.084;2023-12-07T02:26:44;99854.22;;;0.87;100.00
9189;BME280;34313;50.780;6.084;2023-12-07T02:29:09;99857.63;;;0.91;100.00
9189;BME280;34313;50.780;6.084;2023-12-07T02:31:35;99852.56;;;0.82;100.00
9189;BME280;34313;50.780;6.084;2023-12-07T02:34:00;99869.00;;;0.82;100.00
9189;BME280;34313;50.780;6.084;2023-12-07T02:36:27;99856.94;;;0.78;100.00
9189;BME280;34313;50.780;6.084;2023-12-07T02:38:57;99845.66;;;0.81;100.00
9189;BME280;34313;50.780;6.084;2023-12-07T02:41:24;99837.75;;;0.93;100.00
9189;BME280;34313;50.780;6.084;2023-12-07T02:43:50;99839.41;;;0.96;100.00
9189;BME280;34313;50.780;6.084;2023-12-07T02:46:17;99851.63;;;0.89;100.00
9189;BME280;34313;50.780;6.084;2023-12-07T02:48:43;99857.63;;;0.92;100.00
9189;BME280;34313;50.780;6.084;2023-12-07T02:51:08;99859.41;;;0.89;100.00
9189;BME280;34313;50.780;6.084;2023-12-07T02:53:33;99853.56;;;0.73;100.00
9189;BME280;34313;50.780;6.084;2023-12-07T02:55:59;99846.78;;;0.61;100.00
9189;BME280;34313;50.780;6.084;2023-12-07T02:58:24;99858.84;;;0.67;100.00
9189;BME280;34313;50.780;6.084;2023-12-07T03:00:49;99853.59;;;0.68;100.00
9189;BME280;34313;50.780;6.084;2023-12-07T03:03:15;99847.41;;;0.79;100.00
9189;BME280;34313;50.780;6.084;2023-12-07T03:05:40;99841.50;;;0.70;100.00
9189;BME280;34313;50.780;6.084;2023-12-07T03:08:05;99839.66;;;0.77;100.00
9189;BME280;34313;50.780;6.084;2023-12-07T03:10:31;99844.88;;;0.75;100.00
9189;BME280;34313;50.780;6.084;2023-12-07T03:12:56;99840.56;;;0.74;100.00
9189;BME280;34313;50.780;6.084;2023-12-07T03:15:21;99828.50;;;0.70;100.00
9189;BME280;34313;50.780;6.084;2023-12-07T03:17:47;99837.16;;;0.69;100.00
9189;BME280;34313;50.780;6.084;2023-12-07T03:20:12;99838.94;;;0.66;100.00
9189;BME280;34313;50.780;6.084;2023-12-07T03:22:37;99823.41;;;0.63;100.00
9189;BME280;34313;50.780;6.084;2023-12-07T03:25:03;99837.22;;;0.65;100.00
9189;BME280;34313;50.780;6.084;2023-12-07T03:27:29;99835.50;;;0.65;100.00
9189;BME280;34313;50.780;6.084;2023-12-07T03:29:54;99833.78;;;0.61;100.00
9189;BME280;34313;50.780;6.084;2023-12-07T03:32:19;99835.50;;;0.64;100.00
9189;BME280;34313;50.780;6.084;2023-12-07T03:34:44;99831.19;;;0.63;100.00
9189;BME280;34313;50.780;6.084;2023-12-07T03:37:10;99836.31;;;0.70;100.00
9189;BME280;34313;50.780;6.084;2023-12-07T03:39:35;99829.41;;;0.66;100.00
9189;BME280;34313;50.780;6.084;2023-12-07T03:42:00;99826.00;;;0.61;100.00
9189;BME280;34313;50.780;6.084;2023-12-07T03:44:26;99839.84;;;0.63;100.00
9189;BME280;34313;50.780;6.084;2023-12-07T03:46:52;99828.56;;;0.66;100.00
9189;BME280;34313;50.780;6.084;2023-12-07T03:49:17;99830.34;;;0.62;100.00
9189;BME280;34313;50.780;6.084;2023-12-07T03:51:43;99829.44;;;0.65;100.00
9189;BME280;34313;50.780;6.084;2023-12-07T03:54:08;99828.56;;;0.64;100.00
9189;BME280;34313;50.780;6.084;2023-12-07T03:56:33;99819.13;;;0.60;100.00
9189;BME280;34313;50.780;6.084;2023-12-07T03:58:59;99826.97;;;0.54;100.00
9189;BME280;34313;50.780;6.084;2023-12-07T04:01:25;99824.38;;;0.54;100.00
9189;BME280;34313;50.780;6.084;2023-12-07T04:03:52;99828.63;;;0.60;100.00
9189;BME280;34313;50.780;6.084;2023-12-07T04:06:17;99830.50;;;0.48;100.00
9189;BME280;34313;50.780;6.084;2023-12-07T04:08:43;99828.72;;;0.52;100.00
9189;BME280;34313;50.780;6.084;2023-12-07T04:11:09;99833.09;;;0.48;100.00
9189;BME280;34313;50.780;6.084;2023-12-07T04:13:34;99832.25;;;0.48;100.00
9189;BME280;34313;50.780;6.084;2023-12-07T04:16:00;99840.03;;;0.48;100.00
9189;BME280;34313;50.780;6.084;2023-12-07T04:18:26;99840.91;;;0.44;100.00
9189;BME280;34313;50.780;6.084;2023-12-07T04:20:51;99832.41;;;0.32;100.00
9189;BME280;34313;50.780;6.084;2023-12-07T04:23:17;99835.03;;;0.31;100.00
9189;BME280;34313;50.780;6.084;2023-12-07T04:25:42;99841.97;;;0.27;100.00
9189;BME280;34313;50.780;6.084;2023-12-07T04:28:07;99840.25;;;0.26;100.00
9189;BME280;34313;50.780;6.084;2023-12-07T04:30:33;99840.34;;;0.18;100.00
9189;BME280;34313;50.780;6.084;2023-12-07T04:32:58;99844.59;;;0.26;100.00
9189;BME280;34313;50.780;6.084;2023-12-07T04:35:23;99845.50;;;0.20;100.00
9189;BME280;34313;50.780;6.084;2023-12-07T04:37:49;99840.22;;;0.28;100.00
9189;BME280;34313;50.780;6.084;2023-12-07T04:40:14;99841.97;;;0.29;100.00
9189;BME280;34313;50.780;6.084;2023-12-07T04:42:40;99846.19;;;0.39;100.00
9189;BME280;34313;50.780;6.084;2023-12-07T04:45:05;99850.47;;;0.42;100.00
9189;BME280;34313;50.780;6.084;2023-12-07T04:47:32;99860.84;;;0.38;100.00
9189;BME280;34313;50.780;6.084;2023-12-07T04:49:57;99865.16;;;0.43;100.00
9189;BME280;34313;50.780;6.084;2023-12-07T04:52:22;99863.44;;;0.40;100.00
9189;BME280;34313;50.780;6.084;2023-12-07T04:54:47;99870.25;;;0.49;100.00
9189;BME280;34313;50.780;6.084;2023-12-07T04:57:13;99883.19;;;0.53;100.00
9189;BME280;34313;50.780;6.084;2023-12-07T04:59:39;99870.34;;;0.43;100.00
9189;BME280;34313;50.780;6.084;2023-12-07T05:02:04;99889.22;;;0.54;100.00
9189;BME280;34313;50.780;6.084;2023-12-07T05:04:29;99876.34;;;0.48;100.00
9189;BME280;34313;50.780;6.084;2023-12-07T05:06:54;99874.63;;;0.45;100.00
9189;BME280;34313;50.780;6.084;2023-12-07T05:09:20;99875.50;;;0.44;100.00
9189;BME280;34313;50.780;6.084;2023-12-07T05:11:46;99876.38;;;0.43;100.00
9189;BME280;34313;50.780;6.084;2023-12-07T05:14:12;99864.34;;;0.36;100.00
9189;BME280;34313;50.780;6.084;2023-12-07T05:16:37;99865.22;;;0.35;100.00
9189;BME280;34313;50.780;6.084;2023-12-07T05:19:03;99861.75;;;0.39;100.00
9189;BME280;34313;50.780;6.084;2023-12-07T05:21:28;99866.94;;;0.37;100.00
9189;BME280;34313;50.780;6.084;2023-12-07T05:23:53;99867.78;;;0.38;100.00
9189;BME280;34313;50.780;6.084;2023-12-07T05:26:19;99866.09;;;0.35;100.00
9189;BME280;34313;50.780;6.084;2023-12-07T05:28:44;99861.84;;;0.28;100.00
9189;BME280;34313;50.780;6.084;2023-12-07T05:31:18;99864.50;;;0.22;100.00
9189;BME280;34313;50.780;6.084;2023-12-07T05:33:44;99864.50;;;0.24;100.00
9189;BME280;34313;50.780;6.084;2023-12-07T05:36:09;99862.81;;;0.18;100.00
9189;BME280;34313;50.780;6.084;2023-12-07T05:38:35;99870.63;;;0.13;100.00
9189;BME280;34313;50.780;6.084;2023-12-07T05:41:03;99862.03;;;0.11;100.00
9189;BME280;34313;50.780;6.084;2023-12-07T05:43:28;99867.97;;;0.21;100.00
9189;BME280;34313;50.780;6.084;2023-12-07T05:45:54;99851.44;;;0.31;100.00
9189;BME280;34313;50.780;6.084;2023-12-07T05:48:19;99854.06;;;0.28;100.00
9189;BME280;34313;50.780;6.084;2023-12-07T05:50:44;99841.88;;;0.35;100.00
9189;BME280;34313;50.780;6.084;2023-12-07T05:53:10;99843.59;;;0.37;100.00
9189;BME280;34313;50.780;6.084;2023-12-07T05:55:35;99849.59;;;0.41;100.00
9189;BME280;34313;50.780;6.084;2023-12-07T05:58:01;99834.19;;;0.27;100.00
9189;BME280;34313;50.780;6.084;2023-12-07T06:00:26;99841.94;;;0.32;100.00
9189;BME280;34313;50.780;6.084;2023-12-07T06:02:52;99836.78;;;0.27;100.00
9189;BME280;34313;50.780;6.084;2023-12-07T06:05:17;99829.78;;;0.37;100.00
9189;BME280;34313;50.780;6.084;2023-12-07T06:07:43;99827.94;;;0.45;100.00
9189;BME280;34313;50.780;6.084;2023-12-07T06:10:08;99832.38;;;0.37;100.00
9189;BME280;34313;50.780;6.084;2023-12-07T06:12:34;99833.28;;;0.30;100.00
9189;BME280;34313;50.780;6.084;2023-12-07T06:15:00;99819.66;;;0.14;100.00
9189;BME280;34313;50.780;6.084;2023-12-07T06:17:25;99822.22;;;0.17;100.00
9189;BME280;34313;50.780;6.084;2023-12-07T06:19:50;99818.81;;;0.10;100.00
9189;BME280;34313;50.780;6.084;2023-12-07T06:22:16;99822.19;;;0.20;100.00
9189;BME280;34313;50.780;6.084;2023-12-07T06:24:41;99822.06;;;0.29;100.00
9189;BME280;34313;50.780;6.084;2023-12-07T06:27:06;99832.41;;;0.32;100.00
9189;BME280;34313;50.780;6.084;2023-12-07T06:29:31;99828.88;;;0.40;100.00
9189;BME280;34313;50.780;6.084;2023-12-07T06:31:57;99822.88;;;0.36;100.00
9189;BME280;34313;50.780;6.084;2023-12-07T06:34:22;99820.38;;;0.28;100.00
9189;BME280;34313;50.780;6.084;2023-12-07T06:36:47;99810.03;;;0.24;100.00
9189;BME280;34313;50.780;6.084;2023-12-07T06:39:13;99806.59;;;0.23;100.00
9189;BME280;34313;50.780;6.084;2023-12-07T06:41:39;99816.19;;;0.15;100.00
9189;BME280;34313;50.780;6.084;2023-12-07T06:44:06;99815.25;;;0.22;100.00
9189;BME280;34313;50.780;6.084;2023-12-07T06:46:31;99810.03;;;0.24;100.00
9189;BME280;34313;50.780;6.084;2023-12-07T06:48:57;99810.75;;;0.35;100.00
9189;BME280;34313;50.780;6.084;2023-12-07T06:51:22;99813.28;;;0.44;100.00
9189;BME280;34313;50.780;6.084;2023-12-07T06:53:48;99808.88;;;0.51;100.00
9189;BME280;34313;50.780;6.084;2023-12-07T06:56:13;99818.38;;;0.50;100.00
9189;BME280;34313;50.780;6.084;2023-12-07T06:58:40;99814.09;;;0.49;100.00
9189;BME280;34313;50.780;6.084;2023-12-07T07:01:05;99809.91;;;0.34;100.00
9189;BME280;34313;50.780;6.084;2023-12-07T07:03:30;99804.72;;;0.36;100.00
9189;BME280;34313;50.780;6.084;2023-12-07T07:05:55;99804.53;;;0.51;100.00
9189;BME280;34313;50.780;6.084;2023-12-07T07:08:21;99801.78;;;0.65;100.00
9189;BME280;34313;50.780;6.084;2023-12-07T07:10:46;99816.53;;;0.60;100.00
9189;BME280;34313;50.780;6.084;2023-12-07T07:13:12;99809.56;;;0.65;100.00
9189;BME280;34313;50.780;6.084;2023-12-07T07:15:42;99790.56;;;0.63;100.00
9189;BME280;34313;50.780;6.084;2023-12-07T07:18:08;99804.31;;;0.68;100.00
9189;BME280;34313;50.780;6.084;2023-12-07T07:20:34;99793.91;;;0.71;100.00
9189;BME280;34313;50.780;6.084;2023-12-07T07:22:59;99806.72;;;0.81;100.00
9189;BME280;34313;50.780;6.084;2023-12-07T07:25:24;99803.38;;;0.75;100.00
9189;BME280;34313;50.780;6.084;2023-12-07T07:27:50;99800.66;;;0.85;100.00
9189;BME280;34313;50.780;6.084;2023-12-07T07:30:15;99799.72;;;0.89;100.00
9189;BME280;34313;50.780;6.084;2023-12-07T07:32:40;99809.25;;;0.87;100.00
9189;BME280;34313;50.780;6.084;2023-12-07T07:35:06;99786.03;;;0.79;100.00
9189;BME280;34313;50.780;6.084;2023-12-07T07:37:33;99810.91;;;0.92;100.00
9189;BME280;34313;50.780;6.084;2023-12-07T07:39:58;99817.72;;;1.00;100.00
9189;BME280;34313;50.780;6.084;2023-12-07T07:42:25;99815.09;;;1.03;100.00
9189;BME280;34313;50.780;6.084;2023-12-07T07:44:50;99813.41;;;1.02;100.00
9189;BME280;34313;50.780;6.084;2023-12-07T07:47:15;99831.44;;;1.09;100.00
9189;BME280;34313;50.780;6.084;2023-12-07T07:49:41;99821.03;;;1.12;100.00
9189;BME280;34313;50.780;6.084;2023-12-07T07:52:06;99824.25;;;1.28;100.00
9189;BME280;34313;50.780;6.084;2023-12-07T07:54:31;99820.53;;;1.45;100.00
9189;BME280;34313;50.780;6.084;2023-12-07T07:56:57;99823.84;;;1.55;100.00
9189;BME280;34313;50.780;6.084;2023-12-07T07:59:22;99813.38;;;1.58;100.00
9189;BME280;34313;50.780;6.084;2023-12-07T08:01:48;99815.97;;;1.58;100.00
9189;BME280;34313;50.780;6.084;2023-12-07T08:04:13;99820.44;;;1.49;100.00
9189;BME280;34313;50.780;6.084;2023-12-07T08:06:38;99817.66;;;1.62;100.00
9189;BME280;34313;50.780;6.084;2023-12-07T08:09:04;99815.94;;;1.59;100.00
9189;BME280;34313;50.780;6.084;2023-12-07T08:11:29;99818.47;;;1.65;100.00
9189;BME280;34313;50.780;6.084;2023-12-07T08:13:55;99813.03;;;1.79;100.00
9189;BME280;34313;50.780;6.084;2023-12-07T08:16:20;99800.72;;;1.87;100.00
9189;BME280;34313;50.780;6.084;2023-12-07T08:18:45;99798.88;;;1.96;100.00
9189;BME280;34313;50.780;6.084;2023-12-07T08:21:24;99799.41;;;2.13;100.00
9189;BME280;34313;50.780;6.084;2023-12-07T08:23:49;99787.22;;;2.15;100.00
9189;BME280;34313;50.780;6.084;2023-12-07T08:26:14;99795.53;;;2.34;100.00
9189;BME280;34313;50.780;6.084;2023-12-07T08:28:40;99800.47;;;2.46;100.00
9189;BME280;34313;50.780;6.084;2023-12-07T08:31:06;99801.22;;;2.53;100.00
9189;BME280;34313;50.780;6.084;2023-12-07T08:33:32;99793.25;;;2.61;100.00
9189;BME280;34313;50.780;6.084;2023-12-07T08:35:59;99792.44;;;2.57;100.00
9189;BME280;34313;50.780;6.084;2023-12-07T08:38:25;99797.03;;;2.46;100.00
9189;BME280;34313;50.780;6.084;2023-12-07T08:40:50;99795.84;;;2.61;100.00
9189;BME280;34313;50.780;6.084;2023-12-07T08:43:15;99789.78;;;2.62;100.00
9189;BME280;34313;50.780;6.084;2023-12-07T08:45:40;99796.22;;;2.84;100.00
9189;BME280;34313;50.780;6.084;2023-12-07T08:48:06;99787.56;;;3.21;100.00
9189;BME280;34313;50.780;6.084;2023-12-07T08:50:31;99784.94;;;3.23;100.00
9189;BME280;34313;50.780;6.084;2023-12-07T08:52:56;99788.31;;;3.27;100.00
9189;BME280;34313;50.780;6.084;2023-12-07T08:55:22;99798.19;;;3.14;100.00
9189;BME280;34313;50.780;6.084;2023-12-07T08:57:47;99793.56;;;3.25;100.00
9189;BME280;34313;50.780;6.084;2023-12-07T09:00:12;99801.53;;;3.55;100.00
9189;BME280;34313;50.780;6.084;2023-12-07T09:02:38;99803.53;;;3.79;100.00
9189;BME280;34313;50.780;6.084;2023-12-07T09:05:04;99799.72;;;3.93;100.00
9189;BME280;34313;50.780;6.084;2023-12-07T09:07:29;99798.25;;;4.15;99.13
9189;BME280;34313;50.780;6.084;2023-12-07T09:09:54;99803.81;;;4.33;98.71
9189;BME280;34313;50.780;6.084;2023-12-07T09:12:20;99801.59;;;4.50;97.17
9189;BME280;34313;50.780;6.084;2023-12-07T09:14:45;99788.50;;;4.52;94.70
9189;BME280;34313;50.780;6.084;2023-12-07T09:17:10;99787.97;;;4.70;93.52
9189;BME280;34313;50.780;6.084;2023-12-07T09:19:36;99799.66;;;4.87;93.20
9189;BME280;34313;50.780;6.084;2023-12-07T09:22:04;99791.66;;;4.93;93.27
9189;BME280;34313;50.780;6.084;2023-12-07T09:24:29;99799.22;;;5.02;91.80
9189;BME280;34313;50.780;6.084;2023-12-07T09:26:55;99794.63;;;5.10;90.09
9189;BME280;34313;50.780;6.084;2023-12-07T09:29:20;99798.38;;;5.02;89.91
9189;BME280;34313;50.780;6.084;2023-12-07T09:31:45;99809.56;;;5.05;88.95
9189;BME280;34313;50.780;6.084;2023-12-07T09:34:11;99803.25;;;5.13;89.30
9189;BME280;34313;50.780;6.084;2023-12-07T09:36:36;99810.16;;;5.14;88.55
9189;BME280;34313;50.780;6.084;2023-12-07T09:39:02;99805.44;;;5.26;87.75
9189;BME280;34313;50.780;6.084;2023-12-07T09:41:28;99802.78;;;5.28;87.70
9189;BME280;34313;50.780;6.084;2023-12-07T09:43:54;99791.97;;;5.12;87.00
9189;BME280;34313;50.780;6.084;2023-12-07T09:46:20;99783.38;;;5.35;87.20
9189;BME280;34313;50.780;6.084;2023-12-07T09:48:48;99779.25;;;5.55;86.95
9189;BME280;34313;50.780;6.084;2023-12-07T09:51:15;99769.41;;;5.63;86.52
9189;BME280;34313;50.780;6.084;2023-12-07T09:53:42;99766.16;;;5.81;85.14
9189;BME280;34313;50.780;6.084;2023-12-07T09:56:09;99759.53;;;5.98;85.09
9189;BME280;34313;50.780;6.084;2023-12-07T09:58:34;99756.53;;;6.09;83.89
9189;BME280;34313;50.780;6.084;2023-12-07T10:00:59;99749.28;;;6.15;81.57
9189;BME280;34313;50.780;6.084;2023-12-07T10:03:25;99745.81;;;6.15;81.21
9189;BME280;34313;50.780;6.084;2023-12-07T10:05:55;99748.34;;;5.93;80.85
9189;BME280;34313;50.780;6.084;2023-12-07T10:08:29;99737.13;;;6.14;80.66
9189;BME280;34313;50.780;6.084;2023-12-07T10:11:09;99737.06;;;6.16;80.36
9189;BME280;34313;50.780;6.084;2023-12-07T10:13:36;99736.59;;;6.04;79.77
9189;BME280;34313;50.780;6.084;2023-12-07T10:16:15;99709.72;;;5.99;79.31
9189;BME280;34313;50.780;6.084;2023-12-07T10:18:41;99720.19;;;6.24;79.26
9189;BME280;34313;50.780;6.084;2023-12-07T10:21:08;99714.75;;;6.29;78.42
9189;BME280;34313;50.780;6.084;2023-12-07T10:23:37;99709.81;;;6.21;78.47
9189;BME280;34313;50.780;6.084;2023-12-07T10:26:05;99706.47;;;6.18;78.00
9189;BME280;34313;50.780;6.084;2023-12-07T10:28:31;99702.88;;;5.95;78.24
9189;BME280;34313;50.780;6.084;2023-12-07T10:30:58;99698.94;;;5.58;79.85
9189;BME280;34313;50.780;6.084;2023-12-07T10:33:25;99695.63;;;5.78;79.81
9189;BME280;34313;50.780;6.084;2023-12-07T10:35:51;99692.47;;;5.94;80.32
9189;BME280;34313;50.780;6.084;2023-12-07T10:38:16;99684.16;;;5.82;80.21
9189;BME280;34313;50.780;6.084;2023-12-07T10:40:43;99683.16;;;5.61;79.47
9189;BME280;34313;50.780;6.084;2023-12-07T10:43:08;99663.94;;;5.62;79.64
9189;BME280;34313;50.780;6.084;2023-12-07T10:45:34;99669.81;;;5.69;79.95
9189;BME280;34313;50.780;6.084;2023-12-07T10:48:07;99661.44;;;5.59;80.02
9189;BME280;34313;50.780;6.084;2023-12-07T10:50:37;99652.09;;;5.52;80.68
9189;BME280;34313;50.780;6.084;2023-12-07T10:53:21;99659.41;;;5.42;80.86
9189;BME280;34313;50.780;6.084;2023-12-07T10:55:54;99652.41;;;5.43;79.91
9189;BME280;34313;50.780;6.084;2023-12-07T10:58:21;99643.97;;;5.35;79.87
9189;BME280;34313;50.780;6.084;2023-12-07T11:00:48;99644.75;;;5.38;79.92
9189;BME280;34313;50.780;6.084;2023-12-07T11:03:15;99642.25;;;5.35;80.02
9189;BME280;34313;50.780;6.084;2023-12-07T11:05:43;99633.53;;;5.35;79.16
9189;BME280;34313;50.780;6.084;2023-12-07T11:08:11;99638.59;;;5.39;80.37
9189;BME280;34313;50.780;6.084;2023-12-07T11:10:50;99629.00;;;5.40;80.21
9189;BME280;34313;50.780;6.084;2023-12-07T11:13:28;99629.50;;;5.51;79.73
9189;BME280;34313;50.780;6.084;2023-12-07T11:15:55;99624.06;;;5.56;80.70
9189;BME280;34313;50.780;6.084;2023-12-07T11:18:20;99623.09;;;5.60;80.45
9189;BME280;34313;50.780;6.084;2023-12-07T11:20:46;99624.47;;;5.70;76.78
9189;BME280;34313;50.780;6.084;2023-12-07T11:23:16;99620.47;;;5.60;76.04
9189;BME280;34313;50.780;6.084;2023-12-07T11:25:46;99624.84;;;5.59;76.16
9189;BME280;34313;50.780;6.084;2023-12-07T11:28:12;99617.50;;;5.45;76.85
9189;BME280;34313;50.780;6.084;2023-12-07T11:30:38;99618.78;;;5.34;75.49
9189;BME280;34313;50.780;6.084;2023-12-07T11:33:06;99626.38;;;5.40;76.67
9189;BME280;34313;50.780;6.084;2023-12-07T11:35:32;99619.13;;;5.48;77.01
9189;BME280;34313;50.780;6.084;2023-12-07T11:38:06;99616.47;;;5.49;74.64
9189;BME280;34313;50.780;6.084;2023-12-07T11:40:42;99618.28;;;5.47;74.88
9189;BME280;34313;50.780;6.084;2023-12-07T11:43:16;99615.72;;;5.46;72.75
9189;BME280;34313;50.780;6.084;2023-12-07T11:45:47;99606.16;;;5.45;73.07
9189;BME280;34313;50.780;6.084;2023-12-07T11:48:16;99608.47;;;5.54;72.33
9189;BME280;34313;50.780;6.084;2023-12-07T11:50:59;99609.03;;;5.62;71.71
9189;BME280;34313;50.780;6.084;2023-12-07T11:53:27;99591.47;;;5.66;71.74
9189;BME280;34313;50.780;6.084;2023-12-07T11:55:54;99599.69;;;5.80;70.99
9189;BME280;34313;50.780;6.084;2023-12-07T11:58:19;99593.06;;;5.94;71.29
9189;BME280;34313;50.780;6.084;2023-12-07T12:00:45;99583.81;;;6.09;71.94
9189;BME280;34313;50.780;6.084;2023-12-07T12:03:14;99572.31;;;6.13;71.00
9189;BME280;34313;50.780;6.084;2023-12-07T12:05:40;99574.63;;;5.98;70.30
9189;BME280;34313;50.780;6.084;2023-12-07T12:08:06;99562.75;;;5.88;69.18
9189;BME280;34313;50.780;6.084;2023-12-07T12:10:32;99558.91;;;5.98;70.42
9189;BME280;34313;50.780;6.084;2023-12-07T12:13:01;99548.09;;;5.84;69.92
9189;BME280;34313;50.780;6.084;2023-12-07T12:15:27;99562.38;;;5.75;70.32
9189;BME280;34313;50.780;6.084;2023-12-07T12:17:55;99561.50;;;5.75;70.71
9189;BME280;34313;50.780;6.084;2023-12-07T12:20:21;99560.97;;;5.66;70.57
9189;BME280;34313;50.780;6.084;2023-12-07T12:22:46;99554.16;;;5.61;70.86
9189;BME280;34313;50.780;6.084;2023-12-07T12:25:12;99549.56;;;5.67;70.93
9189;BME280;34313;50.780;6.084;2023-12-07T12:27:38;99545.59;;;5.57;71.19
9189;BME280;34313;50.780;6.084;2023-12-07T12:30:04;99538.44;;;5.62;73.03
9189;BME280;34313;50.780;6.084;2023-12-07T12:32:45;99531.38;;;5.64;71.94
9189;BME280;34313;50.780;6.084;2023-12-07T12:35:11;99506.56;;;5.53;71.57
9189;BME280;34313;50.780;6.084;2023-12-07T12:37:47;99506.03;;;5.66;71.49
9189;BME280;34313;50.780;6.084;2023-12-07T12:40:15;99492.97;;;5.66;70.27
9189;BME280;34313;50.780;6.084;2023-12-07T12:42:42;99494.03;;;5.61;70.19
9189;BME280;34313;50.780;6.084;2023-12-07T12:45:08;99475.31;;;5.49;69.99
9189;BME280;34313;50.780;6.084;2023-12-07T12:47:36;99473.44;;;5.53;69.01
9189;BME280;34313;50.780;6.084;2023-12-07T12:50:02;99460.19;;;5.58;69.24
9189;BME280;34313;50.780;6.084;2023-12-07T12:52:29;99463.69;;;5.57;69.34
9189;BME280;34313;50.780;6.084;2023-12-07T12:54:56;99456.84;;;5.54;68.63
9189;BME280;34313;50.780;6.084;2023-12-07T12:57:22;99439.84;;;5.64;68.85
9189;BME280;34313;50.780;6.084;2023-12-07T12:59:48;99446.25;;;5.57;68.55
9189;BME280;34313;50.780;6.084;2023-12-07T13:02:13;99445.66;;;5.73;67.87
9189;BME280;34313;50.780;6.084;2023-12-07T13:04:39;99447.25;;;5.77;68.05
9189;BME280;34313;50.780;6.084;2023-12-07T13:07:05;99446.25;;;5.57;67.36
9189;BME280;34313;50.780;6.084;2023-12-07T13:09:30;99441.38;;;5.48;66.53